Time;durP1;ratioP1;P1;durP2;ratioP2;P2;SDS_P1;SDS_P2;PMS_P1;PMS_P2;Temp;Humidity;BMP_temperature;BMP_pressure;BME280_temperature;BME280_humidity;BME280_pressure;Samples;Min_cycle;Max_cycle;Signal;HPM_P1;HPM_P2
2021/09/19 00:02:11;;;;;;;11.88;10.68;;;11.60;99.00;;;;;;5044808;28;20232;-87
2021/09/19 00:04:38;;;;;;;12.85;10.48;;;11.60;99.10;;;;;;5022473;28;20226;-87
2021/09/19 00:07:07;;;;;;;11.40;10.30;;;11.50;98.90;;;;;;5039706;28;20237;-88
2021/09/19 00:09:34;;;;;;;11.88;10.68;;;11.40;98.90;;;;;;5037668;28;20592;-87
2021/09/19 00:12:01;;;;;;;13.02;11.40;;;11.40;98.90;;;;;;5037695;28;20206;-88
2021/09/19 00:14:28;;;;;;;11.80;10.57;;;11.30;98.60;;;;;;5042478;28;20242;-87
2021/09/19 00:16:55;;;;;;;12.75;11.43;;;11.30;99.00;;;;;;5049027;28;20562;-87
2021/09/19 00:19:23;;;;;;;13.18;10.60;;;11.20;99.20;;;;;;5033265;28;20309;-87
2021/09/19 00:21:51;;;;;;;13.55;10.50;;;11.20;99.40;;;;;;5039185;28;20261;-87
2021/09/19 00:24:19;;;;;;;14.48;10.48;;;11.30;99.20;;;;;;5022207;28;20294;-88
2021/09/19 00:26:47;;;;;;;12.25;10.48;;;11.40;99.10;;;;;;5031706;28;20681;-88
2021/09/19 00:29:14;;;;;;;13.60;11.00;;;11.30;99.30;;;;;;5042374;28;20650;-87
2021/09/19 00:31:41;;;;;;;12.30;9.50;;;11.20;99.20;;;;;;5042473;28;20211;-88
2021/09/19 00:34:08;;;;;;;10.45;9.38;;;11.10;99.20;;;;;;5036886;28;20850;-87
2021/09/19 00:36:35;;;;;;;12.00;9.50;;;11.00;99.50;;;;;;5049036;28;20388;-88
2021/09/19 00:39:02;;;;;;;10.35;9.18;;;11.00;99.40;;;;;;5036213;28;20261;-89
2021/09/19 00:41:30;;;;;;;10.48;9.38;;;11.00;99.50;;;;;;5041759;28;20263;-88
2021/09/19 00:43:57;;;;;;;10.57;8.75;;;11.10;99.50;;;;;;5033008;28;20305;-87
2021/09/19 00:46:24;;;;;;;10.75;9.65;;;11.10;99.40;;;;;;5029994;28;20238;-88
2021/09/19 00:48:51;;;;;;;11.70;9.60;;;11.10;99.30;;;;;;5018271;28;20286;-87
2021/09/19 00:51:18;;;;;;;10.18;8.93;;;11.00;99.30;;;;;;5041539;28;20289;-87
2021/09/19 00:53:46;;;;;;;10.43;9.40;;;11.00;99.40;;;;;;5040203;28;20313;-87
2021/09/19 00:56:19;;;;;;;11.43;9.45;;;11.00;99.50;;;;;;5040046;28;20277;-87
2021/09/19 00:58:51;;;;;;;10.52;9.43;;;10.90;99.50;;;;;;5043260;28;20250;-87
2021/09/19 01:01:19;;;;;;;11.82;8.90;;;10.90;99.60;;;;;;5041573;28;20289;-88
2021/09/19 01:03:46;;;;;;;10.32;9.18;;;10.80;99.70;;;;;;5043658;28;20269;-87
2021/09/19 01:06:15;;;;;;;11.13;9.45;;;10.90;99.70;;;;;;5036330;28;20245;-88
2021/09/19 01:08:44;;;;;;;10.60;9.50;;;10.80;99.60;;;;;;5037336;28;20234;-88
2021/09/19 01:11:11;;;;;;;12.32;9.73;;;10.90;99.60;;;;;;5040611;28;20716;-88
2021/09/19 01:13:40;;;;;;;10.63;9.38;;;10.90;99.70;;;;;;5039868;28;20294;-87
2021/09/19 01:16:10;;;;;;;12.07;9.10;;;10.90;99.80;;;;;;5040577;28;20278;-88
2021/09/19 01:18:39;;;;;;;9.70;8.65;;;11.10;99.60;;;;;;5043737;28;20244;-87
2021/09/19 01:21:06;;;;;;;9.40;8.43;;;11.10;99.30;;;;;;5044054;28;20274;-88
2021/09/19 01:26:28;;;;;;;9.80;8.80;;;11.10;99.10;;;;;;5026784;28;20690;-87
2021/09/19 01:28:56;;;;;;;10.13;8.77;;;11.00;98.80;;;;;;5049547;28;20222;-87
2021/09/19 01:31:24;;;;;;;9.18;8.27;;;10.90;98.90;;;;;;5046291;28;20217;-87
2021/09/19 01:33:51;;;;;;;9.93;8.57;;;10.90;99.10;;;;;;5042956;28;20262;-88
2021/09/19 01:36:18;;;;;;;9.80;8.80;;;10.90;99.00;;;;;;5044568;28;20203;-87
2021/09/19 01:38:49;;;;;;;11.23;8.82;;;10.90;98.90;;;;;;5049970;28;20294;-88
2021/09/19 01:41:20;;;;;;;11.93;8.20;;;10.90;98.80;;;;;;5044587;28;20289;-88
2021/09/19 01:43:47;;;;;;;9.93;8.93;;;10.90;98.70;;;;;;5034749;28;20317;-88
2021/09/19 01:46:17;;;;;;;10.57;9.02;;;10.80;98.70;;;;;;5038547;28;20194;-87
2021/09/19 01:48:44;;;;;;;9.65;8.43;;;10.70;98.90;;;;;;5038330;28;20249;-88
2021/09/19 01:51:12;;;;;;;12.55;8.65;;;10.70;98.90;;;;;;5045150;28;20249;-88
2021/09/19 01:53:40;;;;;;;9.98;8.77;;;10.70;98.90;;;;;;5037980;28;20301;-87
2021/09/19 01:56:09;;;;;;;10.20;8.25;;;10.60;98.70;;;;;;5043445;28;20289;-87
2021/09/19 01:58:42;;;;;;;10.20;8.70;;;10.50;99.20;;;;;;5037748;28;20317;-89
2021/09/19 02:01:11;;;;;;;8.73;7.82;;;10.40;99.20;;;;;;5046670;28;20580;-87
2021/09/19 02:03:39;;;;;;;11.45;8.20;;;10.50;99.30;;;;;;5034549;28;20248;-87
2021/09/19 02:06:07;;;;;;;8.80;7.90;;;10.60;99.10;;;;;;5042800;28;20195;-88
2021/09/19 02:08:35;;;;;;;9.55;8.30;;;10.60;98.90;;;;;;5044549;28;20317;-87
2021/09/19 02:11:04;;;;;;;9.77;8.77;;;10.50;99.00;;;;;;5045286;28;20576;-88
2021/09/19 02:13:34;;;;;;;10.65;8.30;;;10.40;99.10;;;;;;5043998;28;20257;-88
2021/09/19 02:16:02;;;;;;;11.63;7.95;;;10.30;99.10;;;;;;5053340;28;20290;-87
2021/09/19 02:18:29;;;;;;;12.15;8.50;;;10.30;99.40;;;;;;5041346;28;20310;-88
2021/09/19 02:20:56;;;;;;;10.40;8.23;;;10.30;99.30;;;;;;5039496;28;20222;-87
2021/09/19 02:23:24;;;;;;;13.35;8.52;;;10.20;99.30;;;;;;5046776;28;20226;-87
2021/09/19 02:25:51;;;;;;;9.00;8.07;;;10.30;99.50;;;;;;5039850;28;20203;-87
2021/09/19 02:28:19;;;;;;;9.52;7.93;;;10.40;99.30;;;;;;5043141;28;20241;-87
2021/09/19 02:30:49;;;;;;;8.68;7.78;;;10.40;99.40;;;;;;5052293;28;20249;-87
2021/09/19 02:33:17;;;;;;;10.60;7.95;;;10.30;99.30;;;;;;5044769;28;20226;-87
2021/09/19 02:35:44;;;;;;;9.77;8.02;;;10.30;99.30;;;;;;5033543;28;20226;-87
2021/09/19 02:38:11;;;;;;;10.60;8.10;;;10.20;99.30;;;;;;5044695;28;20242;-87
2021/09/19 02:40:39;;;;;;;14.85;8.15;;;10.10;99.40;;;;;;5044825;28;20286;-87
2021/09/19 02:43:06;;;;;;;9.20;7.63;;;10.10;99.50;;;;;;5053426;28;20282;-88
2021/09/19 02:45:33;;;;;;;8.55;7.70;;;10.20;99.40;;;;;;5037804;28;20707;-88
2021/09/19 02:48:02;;;;;;;9.48;7.22;;;10.40;99.40;;;;;;5036531;28;20254;-87
2021/09/19 02:50:29;;;;;;;10.52;7.75;;;10.40;99.20;;;;;;5042924;28;20225;-87
2021/09/19 02:52:56;;;;;;;10.65;8.65;;;10.50;99.20;;;;;;5044416;28;20777;-87
2021/09/19 02:55:24;;;;;;;9.88;8.05;;;10.40;99.10;;;;;;5038283;28;20230;-87
2021/09/19 02:57:51;;;;;;;9.23;8.18;;;10.30;99.10;;;;;;5044864;28;20318;-88
2021/09/19 03:00:21;;;;;;;8.93;8.02;;;10.30;99.10;;;;;;5042222;28;20269;-87
2021/09/19 03:02:49;;;;;;;10.07;8.27;;;10.40;99.00;;;;;;5042909;28;20294;-87
2021/09/19 03:05:19;;;;;;;9.52;8.52;;;10.30;98.60;;;;;;5046493;28;20202;-88
2021/09/19 03:07:46;;;;;;;9.13;8.23;;;10.10;99.00;;;;;;5037103;28;20261;-87
2021/09/19 03:10:15;;;;;;;8.75;7.78;;;10.10;99.10;;;;;;5047296;28;20229;-87
2021/09/19 03:12:42;;;;;;;9.20;8.18;;;10.10;99.00;;;;;;5040496;28;20228;-87
2021/09/19 03:15:11;;;;;;;8.88;7.55;;;10.20;98.70;;;;;;5027230;28;20237;-87
2021/09/19 03:17:39;;;;;;;8.20;7.35;;;10.10;98.60;;;;;;5050087;28;20207;-88
2021/09/19 03:20:07;;;;;;;10.40;7.88;;;10.10;98.70;;;;;;5053645;28;20312;-87
2021/09/19 03:22:35;;;;;;;8.90;7.60;;;10.20;98.70;;;;;;5043017;28;20294;-88
2021/09/19 03:25:03;;;;;;;9.10;7.03;;;10.20;98.60;;;;;;5038300;28;20201;-87
2021/09/19 03:27:30;;;;;;;10.45;7.63;;;10.00;98.60;;;;;;5042191;28;20198;-88
2021/09/19 03:29:57;;;;;;;8.52;6.97;;;9.90;99.00;;;;;;5043283;28;20252;-87
2021/09/19 03:32:25;;;;;;;7.90;6.68;;;9.80;99.00;;;;;;5050368;28;20216;-88
2021/09/19 03:34:52;;;;;;;7.03;6.32;;;9.90;99.10;;;;;;5035372;28;20340;-89
2021/09/19 03:37:19;;;;;;;7.45;6.43;;;10.00;98.50;;;;;;5041129;28;20294;-88
2021/09/19 03:39:48;;;;;;;8.10;7.30;;;9.80;98.80;;;;;;5035205;28;20227;-87
2021/09/19 03:42:15;;;;;;;8.88;7.47;;;9.80;99.10;;;;;;5038368;28;20204;-87
2021/09/19 03:44:42;;;;;;;8.40;7.55;;;9.70;99.20;;;;;;5039656;28;20793;-87
2021/09/19 03:47:09;;;;;;;7.93;6.95;;;9.70;99.40;;;;;;5027016;28;20250;-89
2021/09/19 03:49:36;;;;;;;7.80;7.00;;;9.80;99.40;;;;;;5038382;28;20238;-87
2021/09/19 03:52:04;;;;;;;8.65;7.60;;;9.80;99.40;;;;;;5035938;28;20294;-87
2021/09/19 03:54:31;;;;;;;7.90;7.10;;;9.80;99.40;;;;;;5036961;28;20570;-87
2021/09/19 03:57:01;;;;;;;8.95;8.05;;;9.80;99.80;;;;;;5025002;28;20263;-87
2021/09/19 03:59:28;;;;;;;9.40;8.50;;;9.80;99.60;;;;;;5038196;28;20218;-87
2021/09/19 04:01:55;;;;;;;15.63;11.65;;;9.80;99.70;;;;;;5048668;28;20194;-87
2021/09/19 04:04:22;;;;;;;21.92;16.02;;;9.80;99.90;;;;;;5039359;28;20336;-87
2021/09/19 04:06:50;;;;;;;15.15;11.95;;;9.90;99.90;;;;;;5038269;28;20262;-87
2021/09/19 04:09:17;;;;;;;15.73;12.38;;;10.00;99.90;;;;;;5038233;28;20658;-87
2021/09/19 04:11:44;;;;;;;17.17;12.95;;;10.10;99.90;;;;;;5033193;28;20266;-89
2021/09/19 04:14:12;;;;;;;12.80;11.18;;;10.10;99.90;;;;;;5041051;28;20240;-88
2021/09/19 04:16:40;;;;;;;13.85;11.20;;;10.20;99.90;;;;;;5036362;28;20266;-87
2021/09/19 04:19:08;;;;;;;17.27;12.00;;;10.20;99.90;;;;;;5044880;28;20305;-87
2021/09/19 04:21:36;;;;;;;14.20;12.70;;;10.20;99.70;;;;;;5044290;28;20626;-87
2021/09/19 04:24:04;;;;;;;14.77;12.48;;;10.30;99.70;;;;;;5045266;28;20660;-88
2021/09/19 04:26:31;;;;;;;14.32;12.80;;;10.30;99.60;;;;;;5051480;28;20217;-87
2021/09/19 04:28:58;;;;;;;17.77;12.95;;;10.20;99.50;;;;;;5047677;28;20308;-88
2021/09/19 04:31:26;;;;;;;25.73;13.82;;;10.20;99.60;;;;;;5035146;28;20230;-87
2021/09/19 04:33:53;;;;;;;17.30;12.70;;;10.10;99.40;;;;;;5040119;28;20237;-87
2021/09/19 04:36:21;;;;;;;14.63;12.82;;;10.10;99.40;;;;;;5033410;28;20310;-87
2021/09/19 04:38:48;;;;;;;16.08;12.75;;;10.10;99.50;;;;;;5039072;28;20340;-87
2021/09/19 04:41:15;;;;;;;14.90;12.02;;;10.00;99.30;;;;;;5039492;28;20266;-87
2021/09/19 04:43:42;;;;;;;13.77;11.35;;;9.80;99.60;;;;;;5023993;28;20286;-87
2021/09/19 04:46:09;;;;;;;12.45;11.10;;;9.80;99.80;;;;;;5045592;28;20241;-87
2021/09/19 04:48:37;;;;;;;12.43;10.40;;;9.70;99.60;;;;;;5032458;28;20218;-88
2021/09/19 04:51:04;;;;;;;15.02;10.85;;;9.60;99.70;;;;;;5038246;28;20221;-88
2021/09/19 04:53:31;;;;;;;11.98;10.57;;;9.50;99.80;;;;;;5027996;28;20309;-87
2021/09/19 04:55:58;;;;;;;11.23;9.77;;;9.50;99.80;;;;;;5032412;28;20288;-87
2021/09/19 04:58:25;;;;;;;12.18;10.02;;;9.50;99.90;;;;;;5044554;28;20597;-87
2021/09/19 05:00:52;;;;;;;11.88;9.90;;;9.50;99.70;;;;;;5034519;28;20198;-87
2021/09/19 05:03:19;;;;;;;11.52;10.23;;;9.50;99.90;;;;;;5033166;28;20356;-88
2021/09/19 05:05:48;;;;;;;11.75;9.88;;;9.60;99.70;;;;;;5032999;28;20285;-88
2021/09/19 05:08:15;;;;;;;10.73;9.60;;;9.60;99.90;;;;;;5039749;28;20298;-87
2021/09/19 05:10:42;;;;;;;11.02;9.48;;;9.60;99.50;;;;;;5027182;28;20286;-88
2021/09/19 05:13:09;;;;;;;11.85;9.90;;;9.70;99.30;;;;;;5038605;28;20257;-88
2021/09/19 05:15:36;;;;;;;12.57;10.07;;;9.50;99.30;;;;;;5039477;28;20274;-88
2021/09/19 05:18:03;;;;;;;11.45;9.23;;;9.50;99.30;;;;;;5032947;28;20313;-87
2021/09/19 05:20:30;;;;;;;10.65;9.00;;;9.50;99.30;;;;;;5033635;28;20278;-87
2021/09/19 05:22:59;;;;;;;10.35;9.25;;;9.60;99.30;;;;;;5031339;28;20703;-87
2021/09/19 05:25:26;;;;;;;10.55;9.13;;;9.70;99.20;;;;;;5034326;28;20210;-88
2021/09/19 05:27:52;;;;;;;14.02;10.50;;;9.70;99.10;;;;;;5033823;28;20234;-88
2021/09/19 05:30:20;;;;;;;10.55;9.45;;;9.60;99.10;;;;;;5033013;28;20222;-88
2021/09/19 05:32:47;;;;;;;11.27;10.02;;;9.60;99.30;;;;;;5035041;28;20275;-88
2021/09/19 05:35:14;;;;;;;11.65;10.10;;;9.50;99.60;;;;;;5040659;28;20242;-87
2021/09/19 05:37:41;;;;;;;10.75;9.45;;;9.60;99.80;;;;;;5024249;28;20199;-87
2021/09/19 05:40:11;;;;;;;12.70;9.70;;;9.70;99.80;;;;;;5042749;28;20218;-87
2021/09/19 05:42:38;;;;;;;11.70;10.23;;;9.80;99.60;;;;;;5037154;28;20294;-88
2021/09/19 05:45:06;;;;;;;12.27;10.20;;;9.90;99.50;;;;;;5038024;28;20206;-88
2021/09/19 05:47:34;;;;;;;12.20;10.02;;;9.80;99.50;;;;;;5040646;28;20205;-88
2021/09/19 05:50:01;;;;;;;10.90;9.35;;;9.80;99.90;;;;;;5043371;28;20254;-87
2021/09/19 05:52:28;;;;;;;12.00;10.73;;;9.90;99.90;;;;;;5041642;28;20290;-87
2021/09/19 05:54:55;;;;;;;11.75;10.40;;;10.00;99.50;;;;;;5040353;28;20294;-87
2021/09/19 05:57:24;;;;;;;11.73;10.30;;;10.10;99.30;;;;;;5043096;28;20199;-88
2021/09/19 05:59:51;;;;;;;11.75;10.50;;;10.10;99.50;;;;;;5044021;28;20242;-87
2021/09/19 06:02:18;;;;;;;11.85;10.63;;;10.10;99.70;;;;;;5037344;28;20211;-87
2021/09/19 06:04:47;;;;;;;12.40;11.10;;;10.20;99.70;;;;;;5012605;28;20235;-88
2021/09/19 06:07:15;;;;;;;17.05;13.48;;;10.20;99.70;;;;;;5033455;28;20466;-88
2021/09/19 06:09:42;;;;;;;15.15;13.18;;;10.30;99.90;;;;;;5035435;28;20480;-88
2021/09/19 06:12:10;;;;;;;16.63;14.25;;;10.30;99.90;;;;;;5015822;28;20303;-88
2021/09/19 06:14:38;;;;;;;16.33;14.43;;;10.40;99.90;;;;;;5038151;28;20301;-88
2021/09/19 06:17:06;;;;;;;18.92;15.40;;;10.40;99.90;;;;;;5038159;28;20206;-88
2021/09/19 06:19:33;;;;;;;15.30;13.68;;;10.50;99.90;;;;;;5040237;28;20233;-88
2021/09/19 06:22:01;;;;;;;16.90;14.35;;;10.60;99.90;;;;;;5039542;28;20233;-88
2021/09/19 06:24:29;;;;;;;17.70;13.98;;;10.70;99.90;;;;;;5037952;28;20222;-88
2021/09/19 06:26:59;;;;;;;15.82;13.25;;;10.90;99.90;;;;;;5037532;28;20203;-88
2021/09/19 06:29:28;;;;;;;14.65;12.98;;;10.90;99.90;;;;;;5035794;28;20230;-88
2021/09/19 06:31:58;;;;;;;15.55;12.38;;;10.90;99.90;;;;;;5031549;28;20290;-88
2021/09/19 06:34:26;;;;;;;13.23;11.82;;;10.90;99.90;;;;;;5036620;28;20223;-88
2021/09/19 06:36:53;;;;;;;13.55;12.15;;;11.00;99.90;;;;;;5032394;28;20222;-88
2021/09/19 06:39:20;;;;;;;13.05;11.65;;;11.10;99.90;;;;;;5029302;28;20287;-88
2021/09/19 06:41:50;;;;;;;12.73;11.43;;;11.20;99.70;;;;;;5031458;28;20226;-88
2021/09/19 06:44:18;;;;;;;12.32;11.02;;;11.20;99.30;;;;;;5030341;28;20219;-88
2021/09/19 06:46:45;;;;;;;14.77;11.38;;;11.30;99.40;;;;;;5030946;28;20218;-88
2021/09/19 06:49:13;;;;;;;14.88;12.55;;;11.30;99.50;;;;;;5034695;28;20285;-88
2021/09/19 06:51:40;;;;;;;12.82;11.48;;;11.40;99.80;;;;;;5031737;28;20292;-89
2021/09/19 06:54:08;;;;;;;13.05;11.75;;;11.50;99.40;;;;;;5028394;28;20259;-87
2021/09/19 06:56:35;;;;;;;13.80;12.32;;;11.50;99.10;;;;;;5030291;28;20202;-88
2021/09/19 06:59:02;;;;;;;13.20;11.88;;;11.60;99.00;;;;;;5032861;28;20308;-88
2021/09/19 07:01:30;;;;;;;14.18;12.13;;;11.70;98.70;;;;;;5033211;28;20283;-87
2021/09/19 07:03:58;;;;;;;13.90;12.40;;;11.70;98.50;;;;;;5038900;28;20306;-88
2021/09/19 07:06:27;;;;;;;13.57;12.18;;;11.80;98.40;;;;;;5040105;28;20271;-88
2021/09/19 07:08:54;;;;;;;13.75;12.23;;;11.90;98.10;;;;;;5030370;28;20558;-87
2021/09/19 07:11:21;;;;;;;15.07;13.57;;;11.90;98.30;;;;;;5029518;28;20345;-90
2021/09/19 07:13:47;;;;;;;15.48;13.60;;;12.00;98.30;;;;;;5030052;28;20239;-89
2021/09/19 07:16:15;;;;;;;14.20;12.65;;;12.00;98.20;;;;;;5031660;28;20286;-88
2021/09/19 07:18:43;;;;;;;14.23;12.73;;;12.10;98.10;;;;;;5035783;28;20336;-90
2021/09/19 07:21:10;;;;;;;15.38;13.68;;;12.10;98.30;;;;;;5035410;28;20203;-90
2021/09/19 07:23:38;;;;;;;14.05;12.48;;;12.20;98.30;;;;;;5033104;28;20242;-90
2021/09/19 07:26:07;;;;;;;12.57;11.30;;;12.20;97.70;;;;;;5039650;28;20267;-90
2021/09/19 07:28:34;;;;;;;13.40;12.00;;;12.20;97.60;;;;;;5036311;28;20218;-88
2021/09/19 07:31:08;;;;;;;14.88;13.10;;;12.20;97.50;;;;;;5037892;28;20254;-89
2021/09/19 07:33:42;;;;;;;14.50;12.98;;;12.20;97.60;;;;;;5042919;28;20243;-90
2021/09/19 07:36:10;;;;;;;14.25;12.80;;;12.20;97.90;;;;;;5041086;28;20202;-89
2021/09/19 07:38:39;;;;;;;14.57;13.07;;;12.20;97.70;;;;;;5040821;28;20229;-90
2021/09/19 07:41:06;;;;;;;14.32;12.65;;;12.20;97.90;;;;;;5037978;28;20199;-90
2021/09/19 07:43:34;;;;;;;14.48;12.98;;;12.20;98.10;;;;;;5034913;28;20238;-88
2021/09/19 07:46:28;;;;;;;15.18;13.07;;;12.20;98.40;;;;;;5043696;28;20199;-90
2021/09/19 07:48:56;;;;;;;15.23;12.38;;;12.40;98.10;;;;;;5042019;28;20226;-89
2021/09/19 07:51:43;;;;;;;13.77;12.32;;;12.50;97.90;;;;;;5038716;28;20664;-91
2021/09/19 07:56:58;;;;;;;13.18;11.95;;;12.70;97.80;;;;;;5027737;28;20207;-88
2021/09/19 07:59:31;;;;;;;12.40;10.75;;;12.90;97.40;;;;;;5039425;28;20266;-88
2021/09/19 08:02:00;;;;;;;12.23;10.95;;;13.00;97.40;;;;;;5041925;28;20241;-88
2021/09/19 08:04:27;;;;;;;12.00;10.80;;;13.10;96.90;;;;;;5036298;28;20318;-88
2021/09/19 08:06:54;;;;;;;11.52;10.43;;;13.20;96.50;;;;;;5038254;28;20230;-90
2021/09/19 08:09:29;;;;;;;12.95;11.02;;;13.30;96.50;;;;;;5039335;28;20217;-90
2021/09/19 08:11:56;;;;;;;12.30;11.10;;;13.30;96.20;;;;;;5040309;28;20245;-92
2021/09/19 08:14:23;;;;;;;10.75;9.70;;;13.50;96.30;;;;;;5047333;28;20643;-87
2021/09/19 08:17:00;;;;;;;10.48;9.48;;;13.60;95.70;;;;;;5044074;28;20699;-86
2021/09/19 08:19:28;;;;;;;12.20;11.00;;;13.60;96.00;;;;;;5036028;28;20219;-88
2021/09/19 08:21:55;;;;;;;12.70;11.50;;;13.70;95.80;;;;;;5042311;28;20689;-90
2021/09/19 08:24:23;;;;;;;12.90;11.38;;;13.80;95.70;;;;;;5038739;28;20256;-91
2021/09/19 08:26:51;;;;;;;14.88;13.38;;;13.80;95.80;;;;;;5040904;28;20267;-89
2021/09/19 08:29:18;;;;;;;13.25;11.90;;;13.80;96.30;;;;;;5035114;28;20255;-88
2021/09/19 08:31:45;;;;;;;15.43;12.57;;;13.90;96.60;;;;;;5032916;28;20218;-89
2021/09/19 08:34:12;;;;;;;15.15;13.70;;;14.00;96.00;;;;;;5031430;28;20262;-90
2021/09/19 08:36:39;;;;;;;16.48;14.85;;;14.10;95.80;;;;;;5035493;28;20206;-91
2021/09/19 08:39:08;;;;;;;14.82;13.35;;;14.20;95.50;;;;;;5022694;28;20878;-92
2021/09/19 08:41:36;;;;;;;15.13;13.70;;;14.40;95.80;;;;;;5016932;28;20621;-91
2021/09/19 08:44:05;;;;;;;15.55;13.18;;;14.40;95.20;;;;;;5016817;28;20222;-91
2021/09/19 08:46:32;;;;;;;16.17;13.93;;;14.50;95.00;;;;;;5022459;28;20225;-92
2021/09/19 08:48:59;;;;;;;16.15;14.45;;;14.60;94.70;;;;;;5019148;28;20229;-92
2021/09/19 08:51:26;;;;;;;16.67;14.88;;;14.70;95.00;;;;;;5035066;28;20226;-92
2021/09/19 08:53:53;;;;;;;12.73;11.52;;;14.80;94.40;;;;;;5035428;28;20226;-93
2021/09/19 08:56:24;;;;;;;12.77;11.50;;;15.20;93.50;;;;;;5039833;28;20210;-92
2021/09/19 08:58:51;;;;;;;12.90;11.38;;;16.10;91.90;;;;;;5026932;28;20258;-91
2021/09/19 09:04:44;;;;;;;15.65;12.90;;;17.40;82.30;;;;;;5008500;28;20207;-91
2021/09/19 09:07:13;;;;;;;13.93;12.38;;;17.50;80.10;;;;;;5031133;28;20286;-91
2021/09/19 09:12:34;;;;;;;16.55;14.20;;;17.40;83.60;;;;;;5038111;28;20261;-90
2021/09/19 09:15:05;;;;;;;15.60;13.90;;;17.10;84.20;;;;;;5026485;28;20210;-91
2021/09/19 09:17:33;;;;;;;14.75;13.27;;;17.00;84.50;;;;;;5028233;28;20207;-91
2021/09/19 09:20:02;;;;;;;14.18;12.60;;;17.30;84.10;;;;;;5045435;28;20654;-91
2021/09/19 09:22:32;;;;;;;12.30;11.10;;;17.80;80.40;;;;;;5042043;28;20229;-92
2021/09/19 09:25:10;;;;;;;10.80;9.75;;;18.60;78.20;;;;;;5038325;28;20317;-92
2021/09/19 09:27:40;;;;;;;14.25;12.75;;;19.70;60.60;;;;;;5031514;28;20206;-92
2021/09/19 09:30:13;;;;;;;12.13;10.93;;;19.60;60.70;;;;;;5030864;28;20733;-90
2021/09/19 09:32:57;;;;;;;13.82;12.48;;;20.10;60.50;;;;;;5027943;28;20237;-90
2021/09/19 09:35:26;;;;;;;14.13;12.02;;;21.10;58.10;;;;;;5024844;28;20199;-90
2021/09/19 09:37:53;;;;;;;15.65;12.63;;;22.80;43.90;;;;;;5021024;28;20262;-91
2021/09/19 09:40:21;;;;;;;14.95;12.40;;;23.20;40.60;;;;;;5017857;28;20197;-90
2021/09/19 09:43:07;;;;;;;12.25;11.05;;;22.60;41.10;;;;;;5021742;28;20199;-91
2021/09/19 09:45:36;;;;;;;13.55;11.60;;;23.80;39.00;;;;;;5022738;28;20661;-88
2021/09/19 09:48:23;;;;;;;13.98;12.23;;;24.40;35.40;;;;;;5029038;28;20226;-88
2021/09/19 09:50:51;;;;;;;12.50;11.25;;;24.90;33.70;;;;;;5025583;28;20630;-91
2021/09/19 09:53:21;;;;;;;10.98;9.95;;;25.90;31.60;;;;;;5029574;28;20241;-91
2021/09/19 09:55:48;;;;;;;10.93;10.02;;;26.50;30.70;;;;;;5027202;28;20212;-91
2021/09/19 09:58:18;;;;;;;13.18;11.77;;;26.30;29.00;;;;;;5029871;28;20589;-91
2021/09/19 10:00:45;;;;;;;12.00;10.63;;;26.00;28.60;;;;;;5032860;28;20203;-88
2021/09/19 10:03:14;;;;;;;10.73;9.82;;;25.30;29.10;;;;;;5023461;28;20226;-88
2021/09/19 10:05:42;;;;;;;9.50;8.60;;;25.10;31.10;;;;;;5023999;28;20211;-90
2021/09/19 10:08:09;;;;;;;10.27;9.27;;;24.90;31.30;;;;;;5028588;28;20244;-90
2021/09/19 10:10:41;;;;;;;8.68;7.82;;;25.50;27.40;;;;;;5030454;28;20199;-90
2021/09/19 10:13:08;;;;;;;8.15;7.35;;;25.80;26.80;;;;;;5022366;28;20292;-89
2021/09/19 10:15:35;;;;;;;9.23;8.32;;;25.40;29.30;;;;;;5033335;28;20214;-88
2021/09/19 10:18:03;;;;;;;10.05;8.77;;;25.20;28.30;;;;;;5031955;28;20225;-88
2021/09/19 10:20:38;;;;;;;8.05;7.35;;;24.90;29.70;;;;;;5022988;28;20212;-88
2021/09/19 10:23:10;;;;;;;7.63;7.03;;;25.00;27.80;;;;;;5016247;28;20670;-87
2021/09/19 10:25:43;;;;;;;9.60;8.35;;;25.30;27.00;;;;;;5017351;28;20206;-88
2021/09/19 10:28:28;;;;;;;9.10;8.15;;;24.00;29.80;;;;;;5020936;28;20304;-87
2021/09/19 10:31:17;;;;;;;7.72;7.13;;;24.50;29.00;;;;;;5022049;28;20210;-89
2021/09/19 10:33:46;;;;;;;7.80;7.20;;;24.50;28.70;;;;;;5018787;28;20226;-89
2021/09/19 10:36:24;;;;;;;8.55;7.72;;;24.90;28.20;;;;;;5018811;28;20657;-88
2021/09/19 10:38:51;;;;;;;7.85;7.18;;;25.00;27.90;;;;;;5021703;28;20226;-87
2021/09/19 10:41:20;;;;;;;8.48;7.80;;;25.10;27.00;;;;;;5021700;28;20211;-88
2021/09/19 10:43:51;;;;;;;7.50;6.80;;;25.00;28.20;;;;;;5021980;28;20226;-90
2021/09/19 10:46:49;;;;;;;7.25;6.65;;;24.80;28.70;;;;;;5024504;28;20206;-89
2021/09/19 10:49:18;;;;;;;8.35;7.55;;;24.70;27.80;;;;;;4950135;28;20700;-88
2021/09/19 10:52:09;;;;;;;8.60;7.80;;;24.90;29.50;;;;;;5005276;28;20230;-86
2021/09/19 10:54:48;;;;;;;9.95;8.95;;;25.10;27.60;;;;;;5016927;28;20272;-86
2021/09/19 10:57:20;;;;;;;8.82;8.05;;;25.50;26.20;;;;;;5018679;28;20214;-89
2021/09/19 11:00:13;;;;;;;8.43;7.65;;;25.70;28.60;;;;;;5021877;28;20222;-89
2021/09/19 11:02:42;;;;;;;8.65;7.95;;;24.70;27.70;;;;;;5020412;28;20202;-90
2021/09/19 11:05:25;;;;;;;8.45;7.75;;;23.80;31.00;;;;;;5025377;28;20661;-86
2021/09/19 11:08:11;;;;;;;9.75;8.38;;;22.70;32.50;;;;;;5024260;28;20277;-86
2021/09/19 11:11:06;;;;;;;9.63;8.07;;;21.60;33.40;;;;;;5023114;28;20209;-86
2021/09/19 11:13:38;;;;;;;9.10;8.27;;;21.40;37.50;;;;;;5018777;28;20248;-89
2021/09/19 11:16:23;;;;;;;7.78;6.93;;;21.20;38.30;;;;;;5025172;28;20202;-89
2021/09/19 11:18:52;;;;;;;9.10;8.27;;;21.00;42.40;;;;;;5028376;28;20233;-90
2021/09/19 11:21:38;;;;;;;9.63;8.65;;;20.80;44.60;;;;;;5029134;28;20302;-89
2021/09/19 11:24:10;;;;;;;9.10;8.27;;;20.60;43.70;;;;;;5043516;28;20230;-89
2021/09/19 11:26:39;;;;;;;8.80;7.90;;;20.30;45.30;;;;;;5030505;28;20237;-90
2021/09/19 11:31:52;;;;;;;7.47;6.75;;;20.00;47.70;;;;;;5019128;28;20661;-90
2021/09/19 11:37:01;;;;;;;7.47;6.78;;;19.80;48.30;;;;;;5034769;28;20207;-90
2021/09/19 11:45:41;;;;;;;6.97;6.38;;;19.80;47.20;;;;;;5057694;28;20266;-92
2021/09/19 11:48:09;;;;;;;6.07;5.50;;;19.90;46.80;;;;;;5036069;28;20262;-92
2021/09/19 11:50:52;;;;;;;6.53;5.82;;;19.90;47.30;;;;;;5030249;28;20248;-92
2021/09/19 12:01:47;;;;;;;6.38;5.82;;;19.50;50.80;;;;;;5003865;28;20213;-87
2021/09/19 12:04:15;;;;;;;6.07;5.57;;;19.70;49.30;;;;;;5025155;28;20242;-91
2021/09/19 12:06:44;;;;;;;6.40;5.90;;;19.70;50.30;;;;;;5032721;28;20202;-91
2021/09/19 12:14:44;;;;;;;7.07;6.13;;;19.60;46.70;;;;;;5003029;28;20223;-90
2021/09/19 12:17:12;;;;;;;6.47;5.93;;;19.40;49.40;;;;;;5020264;28;20261;-90
2021/09/19 12:19:41;;;;;;;7.45;6.75;;;19.40;51.30;;;;;;5022226;28;20819;-89
2021/09/19 12:22:15;;;;;;;6.00;5.40;;;19.60;50.60;;;;;;5031263;28;20274;-91
2021/09/19 12:24:42;;;;;;;6.20;5.53;;;19.60;52.50;;;;;;5041659;28;20237;-90
2021/09/19 12:30:46;;;;;;;5.90;5.30;;;20.00;49.50;;;;;;5047611;28;20206;-90
2021/09/19 12:33:14;;;;;;;6.18;5.57;;;20.20;47.30;;;;;;5049664;28;20226;-91
2021/09/19 12:35:41;;;;;;;5.65;4.50;;;20.00;45.50;;;;;;5044577;28;20186;-91
2021/09/19 12:38:13;;;;;;;5.80;5.30;;;19.80;49.10;;;;;;5050278;28;20273;-90
2021/09/19 12:40:41;;;;;;;6.82;6.18;;;19.60;49.40;;;;;;5022749;28;20286;-89
2021/09/19 12:43:11;;;;;;;7.68;5.78;;;19.30;48.30;;;;;;5037363;28;20222;-88
2021/09/19 12:45:41;;;;;;;6.50;5.85;;;19.10;50.80;;;;;;5042214;28;20305;-87
2021/09/19 12:48:09;;;;;;;6.75;6.15;;;19.10;52.00;;;;;;5032691;28;20202;-90
2021/09/19 12:50:38;;;;;;;5.60;5.07;;;19.10;52.60;;;;;;5025404;28;20638;-89
2021/09/19 12:53:05;;;;;;;5.78;5.28;;;19.30;52.60;;;;;;5027370;28;20684;-90
2021/09/19 12:55:33;;;;;;;5.75;5.20;;;19.40;49.60;;;;;;5028661;28;20296;-90
2021/09/19 12:58:09;;;;;;;8.63;5.50;;;19.60;47.20;;;;;;5031239;28;20230;-93
2021/09/19 13:00:36;;;;;;;6.70;5.28;;;19.50;47.30;;;;;;5037335;28;20221;-92
2021/09/19 13:03:05;;;;;;;5.13;4.50;;;19.50;44.80;;;;;;5039467;28;20276;-91
2021/09/19 13:05:32;;;;;;;4.70;4.30;;;19.70;44.20;;;;;;5033470;28;20199;-91
2021/09/19 13:07:59;;;;;;;4.50;4.10;;;20.00;44.30;;;;;;5036411;28;20603;-89
2021/09/19 13:10:27;;;;;;;5.00;4.15;;;20.10;43.90;;;;;;5036143;28;20205;-89
2021/09/19 13:12:54;;;;;;;5.38;4.90;;;20.30;44.10;;;;;;5032873;28;20234;-89
2021/09/19 13:15:24;;;;;;;5.70;5.20;;;19.90;42.80;;;;;;5026651;28;20645;-93
2021/09/19 13:17:52;;;;;;;8.57;5.18;;;19.70;43.60;;;;;;5021555;28;20297;-92
2021/09/19 13:20:19;;;;;;;5.30;4.90;;;19.60;44.80;;;;;;5020250;28;20665;-92
2021/09/19 13:22:47;;;;;;;4.90;4.50;;;19.30;45.90;;;;;;5021826;28;20229;-91
2021/09/19 13:25:14;;;;;;;6.20;5.38;;;19.20;46.60;;;;;;5022901;28;20210;-91
2021/09/19 13:27:41;;;;;;;5.13;4.72;;;19.30;48.60;;;;;;5020358;28;20730;-91
2021/09/19 13:30:10;;;;;;;4.90;4.50;;;19.30;49.00;;;;;;5024751;28;20661;-91